createdAt,value
2023-05-06T00:01:45.716Z,95.62
2023-05-06T00:04:12.314Z,95.43
2023-05-06T00:06:38.798Z,95.40
2023-05-06T00:09:05.204Z,95.69
2023-05-06T00:11:31.625Z,95.68
2023-05-06T00:13:58.002Z,95.62
2023-05-06T00:16:24.484Z,95.68
2023-05-06T00:18:51.014Z,95.56
2023-05-06T00:21:17.435Z,95.17
2023-05-06T00:23:43.853Z,95.44
2023-05-06T00:26:10.662Z,95.62
2023-05-06T00:28:37.061Z,95.91
2023-05-06T00:31:03.474Z,96.41
2023-05-06T00:33:29.892Z,96.36
2023-05-06T00:35:56.448Z,96.51
2023-05-06T00:38:23.209Z,96.44
2023-05-06T00:40:49.906Z,96.59
2023-05-06T00:43:16.276Z,96.87
2023-05-06T00:45:42.960Z,96.46
2023-05-06T00:48:09.662Z,96.39
2023-05-06T00:50:36.596Z,96.60
2023-05-06T00:53:05.513Z,96.56
2023-05-06T00:55:32.358Z,96.30
2023-05-06T00:57:59.109Z,96.63
2023-05-06T01:00:26.240Z,96.22
2023-05-06T01:02:53.237Z,96.33
2023-05-06T01:05:22.785Z,96.42
2023-05-06T01:08:12.872Z,96.27
2023-05-06T01:11:05.333Z,96.44
2023-05-06T01:14:20.745Z,96.45
2023-05-06T01:16:52.684Z,96.79
2023-05-06T01:19:36.712Z,96.70
2023-05-06T01:22:05.751Z,96.39
2023-05-06T01:24:43.027Z,96.40
2023-05-06T01:27:11.088Z,96.05
2023-05-06T01:29:41.619Z,95.93
2023-05-06T01:32:23.086Z,95.74
2023-05-06T01:34:54.698Z,95.62
2023-05-06T01:37:38.763Z,95.39
2023-05-06T01:40:07.710Z,95.34
2023-05-06T01:42:35.516Z,95.26
2023-05-06T01:45:08.270Z,95.13
2023-05-06T01:47:36.604Z,95.25
2023-05-06T01:50:03.345Z,94.69
2023-05-06T01:52:29.717Z,94.97
2023-05-06T01:54:56.087Z,94.65
2023-05-06T01:57:22.476Z,95.02
2023-05-06T01:59:48.867Z,94.51
2023-05-06T02:02:15.285Z,94.73
2023-05-06T02:04:41.652Z,94.20
2023-05-06T02:07:08.225Z,94.36
2023-05-06T02:09:34.631Z,94.58
2023-05-06T02:12:01.691Z,94.14
2023-05-06T02:14:28.173Z,94.13
2023-05-06T02:16:55.327Z,94.15
2023-05-06T02:19:21.727Z,94.11
2023-05-06T02:21:48.107Z,93.74
2023-05-06T02:24:14.462Z,93.97
2023-05-06T02:26:40.851Z,93.82
2023-05-06T02:29:07.215Z,93.79
2023-05-06T02:31:33.859Z,94.04
2023-05-06T02:34:00.236Z,94.12
2023-05-06T02:36:27.528Z,93.82
2023-05-06T02:38:54.189Z,94.30
2023-05-06T02:41:20.617Z,94.24
2023-05-06T02:43:46.984Z,93.76
2023-05-06T02:46:13.728Z,94.48
2023-05-06T02:48:40.141Z,94.04
2023-05-06T02:51:06.604Z,94.25
2023-05-06T02:53:33.134Z,94.05
2023-05-06T02:55:59.570Z,94.25
2023-05-06T02:58:26.290Z,94.35
2023-05-06T03:00:52.748Z,94.26
2023-05-06T03:03:19.139Z,94.09
2023-05-06T03:05:45.720Z,94.14
2023-05-06T03:08:12.082Z,94.00
2023-05-06T03:10:38.484Z,94.28
2023-05-06T03:13:05.017Z,94.11
2023-05-06T03:15:32.212Z,94.24
2023-05-06T03:17:58.702Z,93.95
2023-05-06T03:20:25.181Z,93.79
2023-05-06T03:22:52.001Z,93.72
2023-05-06T03:25:18.351Z,94.00
2023-05-06T03:27:44.747Z,94.02
2023-05-06T03:30:11.579Z,94.01
2023-05-06T03:32:38.510Z,94.38
2023-05-06T03:35:06.702Z,93.83
2023-05-06T03:37:33.038Z,94.33
2023-05-06T03:40:00.704Z,94.10
2023-05-06T03:42:27.084Z,93.73
2023-05-06T03:44:53.480Z,94.42
2023-05-06T03:47:19.905Z,93.93
2023-05-06T03:49:46.256Z,94.04
2023-05-06T03:52:12.666Z,94.23
2023-05-06T03:54:39.038Z,94.18
2023-05-06T03:57:05.504Z,94.41
2023-05-06T03:59:31.913Z,94.41
2023-05-06T04:01:58.287Z,94.07
2023-05-06T04:04:27.294Z,93.99
2023-05-06T04:06:53.711Z,94.25
2023-05-06T04:09:20.061Z,94.33
2023-05-06T04:11:46.434Z,94.58
2023-05-06T04:14:12.883Z,94.87
2023-05-06T04:16:39.337Z,94.45
2023-05-06T04:19:06.717Z,94.51
2023-05-06T04:21:33.266Z,94.71
2023-05-06T04:23:59.667Z,94.80
2023-05-06T04:26:26.011Z,94.63
2023-05-06T04:28:52.357Z,94.86
2023-05-06T04:31:18.771Z,94.86
2023-05-06T04:33:45.298Z,94.70
2023-05-06T04:36:12.872Z,95.15
2023-05-06T04:38:39.347Z,95.32
2023-05-06T04:41:05.777Z,95.35
2023-05-06T04:43:32.837Z,94.82
2023-05-06T04:45:59.279Z,94.90
2023-05-06T04:48:26.174Z,94.84
2023-05-06T04:50:52.623Z,95.10
2023-05-06T04:53:18.981Z,95.38
2023-05-06T04:55:45.490Z,95.68
2023-05-06T04:58:11.901Z,95.31
2023-05-06T05:00:38.382Z,96.05
2023-05-06T05:03:04.943Z,95.91
2023-05-06T05:05:33.992Z,95.74
2023-05-06T05:08:00.527Z,95.79
2023-05-06T05:10:26.935Z,95.80
2023-05-06T05:12:53.467Z,96.19
2023-05-06T05:15:21.192Z,96.50
2023-05-06T05:17:47.910Z,96.51
2023-05-06T05:20:14.414Z,96.89
2023-05-06T05:22:40.772Z,97.08
2023-05-06T05:25:08.599Z,97.36
2023-05-06T05:27:35.276Z,97.66
2023-05-06T05:30:01.848Z,97.46
2023-05-06T05:32:28.361Z,97.57
2023-05-06T05:34:54.852Z,97.56
2023-05-06T05:37:21.410Z,97.81
2023-05-06T05:39:47.814Z,97.83
2023-05-06T05:42:14.191Z,97.97
2023-05-06T05:44:40.753Z,97.76
2023-05-06T05:47:07.343Z,97.85
2023-05-06T05:49:33.801Z,98.19
2023-05-06T05:52:00.319Z,97.93
2023-05-06T05:54:26.769Z,97.74
2023-05-06T05:56:53.197Z,97.60
2023-05-06T05:59:19.739Z,97.53
2023-05-06T06:02:01.589Z,98.09
2023-05-06T06:04:28.079Z,97.41
2023-05-06T06:06:58.075Z,97.88
2023-05-06T06:09:24.910Z,97.45
2023-05-06T06:11:51.384Z,97.27
2023-05-06T06:14:17.756Z,97.14
2023-05-06T06:16:44.280Z,97.29
2023-05-06T06:19:10.887Z,97.23
2023-05-06T06:21:37.285Z,97.28
2023-05-06T06:24:04.048Z,97.25
2023-05-06T06:26:30.626Z,97.56
2023-05-06T06:28:57.095Z,97.83
2023-05-06T06:31:23.506Z,97.35
2023-05-06T06:33:50.170Z,97.10
2023-05-06T06:36:16.646Z,97.26
2023-05-06T06:38:43.006Z,97.42
2023-05-06T06:41:09.460Z,97.49
2023-05-06T06:43:35.872Z,97.78
2023-05-06T06:46:02.294Z,97.76
2023-05-06T06:48:28.751Z,97.70
2023-05-06T06:50:55.452Z,98.17
2023-05-06T06:53:21.948Z,97.94
2023-05-06T06:55:48.339Z,97.75
2023-05-06T06:58:14.716Z,97.72
2023-05-06T07:00:41.157Z,97.91
2023-05-06T07:03:07.700Z,98.05
2023-05-06T07:05:34.287Z,98.48
2023-05-06T07:08:00.706Z,98.74
2023-05-06T07:10:27.138Z,98.57
2023-05-06T07:12:54.166Z,98.75
2023-05-06T07:15:20.709Z,98.77
2023-05-06T07:17:47.152Z,98.31
2023-05-06T07:20:13.685Z,98.48
2023-05-06T07:22:41.245Z,98.50
2023-05-06T07:25:08.330Z,98.60
2023-05-06T07:27:34.792Z,99.23
2023-05-06T07:30:01.167Z,99.05
2023-05-06T07:32:27.617Z,98.13
2023-05-06T07:34:54.075Z,98.27
2023-05-06T07:37:20.426Z,97.97
2023-05-06T07:39:46.863Z,97.75
2023-05-06T07:42:13.257Z,97.70
2023-05-06T07:44:39.910Z,97.12
2023-05-06T07:47:06.646Z,97.34
2023-05-06T07:49:34.897Z,97.51
2023-05-06T07:52:01.342Z,97.75
2023-05-06T07:54:27.708Z,97.65
2023-05-06T07:56:54.138Z,97.70
2023-05-06T07:59:20.560Z,97.60
2023-05-06T08:01:46.948Z,98.00
2023-05-06T08:04:13.430Z,97.54
2023-05-06T08:06:39.949Z,97.59
2023-05-06T08:09:06.337Z,96.50
2023-05-06T08:11:32.730Z,97.17
2023-05-06T08:13:59.089Z,96.55
2023-05-06T08:16:25.837Z,96.47
2023-05-06T08:18:52.250Z,96.15
2023-05-06T08:21:18.614Z,96.04
2023-05-06T08:23:44.976Z,96.26
2023-05-06T08:26:11.352Z,96.47
2023-05-06T08:28:37.750Z,96.73
2023-05-06T08:31:04.131Z,96.33
2023-05-06T08:33:30.893Z,95.58
2023-05-06T08:35:58.885Z,95.12
2023-05-06T08:38:25.927Z,96.40
2023-05-06T08:40:53.804Z,95.06
2023-05-06T08:43:31.934Z,93.82
2023-05-06T08:46:01.568Z,94.21
2023-05-06T08:48:29.948Z,94.87
2023-05-06T08:50:59.085Z,95.66
2023-05-06T08:53:28.864Z,94.02
2023-05-06T08:56:06.865Z,92.93
2023-05-06T08:58:35.359Z,92.88
2023-05-06T09:01:03.056Z,92.26
2023-05-06T09:03:29.813Z,92.48
2023-05-06T09:05:57.695Z,91.25
2023-05-06T09:08:24.140Z,91.95
2023-05-06T09:10:50.667Z,91.92
2023-05-06T09:13:19.037Z,90.33
2023-05-06T09:15:49.947Z,90.90
2023-05-06T09:18:16.681Z,90.62
2023-05-06T09:20:48.436Z,90.06
2023-05-06T09:23:30.954Z,89.56
2023-05-06T09:25:58.537Z,90.86
2023-05-06T09:28:32.630Z,89.58
2023-05-06T09:31:09.920Z,90.24
2023-05-06T09:33:37.310Z,87.86
2023-05-06T09:36:04.756Z,88.67
2023-05-06T09:38:31.330Z,88.86
2023-05-06T09:40:58.203Z,87.61
2023-05-06T09:43:24.842Z,88.37
2023-05-06T09:45:51.432Z,87.27
2023-05-06T09:48:17.919Z,86.97
2023-05-06T09:50:44.359Z,85.57
2023-05-06T09:53:13.166Z,85.33
2023-05-06T09:55:40.353Z,86.33
2023-05-06T09:58:09.129Z,85.42
2023-05-06T10:00:36.530Z,84.21
2023-05-06T10:03:11.709Z,84.14
2023-05-06T10:05:39.161Z,81.68
2023-05-06T10:08:07.560Z,84.37
2023-05-06T10:10:40.448Z,84.13
2023-05-06T10:13:06.908Z,84.02
2023-05-06T10:15:34.294Z,85.64
2023-05-06T10:18:04.286Z,83.36
2023-05-06T10:20:33.936Z,82.87
2023-05-06T10:23:29.691Z,81.87
2023-05-06T10:25:57.824Z,82.91
2023-05-06T10:28:30.574Z,80.05
2023-05-06T10:30:59.236Z,81.88
2023-05-06T10:33:26.362Z,81.42
2023-05-06T10:35:58.720Z,80.89
2023-05-06T10:38:32.662Z,83.11
2023-05-06T10:41:00.461Z,78.79
2023-05-06T10:43:32.316Z,81.20
2023-05-06T10:46:00.023Z,76.36
2023-05-06T10:48:26.803Z,75.92
2023-05-06T10:51:16.347Z,76.26
2023-05-06T10:54:02.498Z,76.64
2023-05-06T10:56:50.165Z,75.63
2023-05-06T10:59:26.581Z,74.56
2023-05-06T11:02:07.437Z,75.93
2023-05-06T11:04:33.893Z,75.59
2023-05-06T11:07:11.501Z,75.98
2023-05-06T11:10:00.877Z,75.34
2023-05-06T11:12:49.506Z,74.11
2023-05-06T11:15:39.333Z,72.72
2023-05-06T11:18:24.599Z,74.22
2023-05-06T11:20:51.801Z,74.82
2023-05-06T11:23:21.193Z,75.80
2023-05-06T11:25:47.756Z,76.82
2023-05-06T11:28:16.221Z,73.28
2023-05-06T11:30:53.072Z,75.01
2023-05-06T11:33:30.744Z,75.96
2023-05-06T11:35:57.198Z,74.04
2023-05-06T11:38:54.483Z,71.93
2023-05-06T11:41:23.145Z,69.18
2023-05-06T11:43:53.294Z,71.57
2023-05-06T11:46:21.221Z,71.74
2023-05-06T11:48:56.907Z,69.80
2023-05-06T11:51:37.735Z,70.39
2023-05-06T11:54:09.256Z,70.74
2023-05-06T11:56:50.110Z,71.23
2023-05-06T11:59:19.233Z,73.73
2023-05-06T12:01:46.290Z,70.69
2023-05-06T12:04:13.217Z,70.58
2023-05-06T12:06:40.104Z,71.12
2023-05-06T12:09:09.542Z,71.65
2023-05-06T12:11:37.270Z,70.54
2023-05-06T12:14:06.303Z,66.64
2023-05-06T12:16:34.188Z,66.31
2023-05-06T12:19:21.010Z,66.70
2023-05-06T12:21:47.541Z,67.53
2023-05-06T12:24:30.306Z,69.59
2023-05-06T12:27:10.749Z,68.80
2023-05-06T12:29:52.840Z,69.59
2023-05-06T12:32:19.220Z,68.17
2023-05-06T12:34:45.773Z,65.70
2023-05-06T12:37:23.568Z,70.77
2023-05-06T12:39:58.827Z,70.71
2023-05-06T12:42:33.277Z,68.25
2023-05-06T12:45:16.266Z,65.43
2023-05-06T12:47:52.569Z,64.54
2023-05-06T12:50:40.363Z,65.26
2023-05-06T12:53:09.179Z,65.40
2023-05-06T12:55:41.595Z,66.09
2023-05-06T12:58:17.246Z,65.68
2023-05-06T13:00:50.934Z,65.71
2023-05-06T13:03:19.119Z,65.06
2023-05-06T13:05:50.273Z,66.56
2023-05-06T13:08:19.156Z,67.70
2023-05-06T13:10:49.537Z,66.60
2023-05-06T13:13:18.043Z,65.90
2023-05-06T13:15:44.611Z,66.92
2023-05-06T13:18:23.251Z,66.75
2023-05-06T13:20:51.344Z,67.96
2023-05-06T13:23:36.765Z,65.20
2023-05-06T13:26:12.710Z,68.72
2023-05-06T13:28:41.568Z,68.16
2023-05-06T13:31:08.600Z,68.40
2023-05-06T13:33:36.344Z,64.86
2023-05-06T13:36:20.009Z,65.24
2023-05-06T13:38:55.873Z,65.69
2023-05-06T13:41:32.787Z,65.63
2023-05-06T13:43:59.369Z,66.00
2023-05-06T13:46:27.241Z,64.25
2023-05-06T13:48:53.877Z,65.00
2023-05-06T13:51:21.448Z,65.28
2023-05-06T13:53:54.054Z,64.83
2023-05-06T13:56:21.471Z,65.81
2023-05-06T13:58:47.917Z,64.17
2023-05-06T14:01:14.619Z,62.27
2023-05-06T14:03:41.096Z,62.61
2023-05-06T14:06:08.619Z,61.74
2023-05-06T14:08:35.002Z,59.97
2023-05-06T14:11:01.378Z,59.53
2023-05-06T14:13:31.669Z,61.39
2023-05-06T14:15:58.451Z,61.04
2023-05-06T14:18:26.668Z,60.06
2023-05-06T14:20:53.674Z,60.29
2023-05-06T14:23:20.124Z,59.92
2023-05-06T14:25:46.535Z,58.12
2023-05-06T14:28:13.088Z,60.84
2023-05-06T14:30:39.766Z,58.49
2023-05-06T14:33:06.668Z,60.14
2023-05-06T14:35:33.065Z,58.23
2023-05-06T14:37:59.421Z,58.75
2023-05-06T14:40:25.952Z,58.53
2023-05-06T14:42:53.466Z,61.40
2023-05-06T14:45:21.113Z,59.19
2023-05-06T14:47:47.531Z,57.76
2023-05-06T14:50:14.091Z,57.17
2023-05-06T14:52:41.454Z,58.94
2023-05-06T14:55:09.982Z,60.27
2023-05-06T14:57:36.730Z,60.83
2023-05-06T15:00:10.257Z,61.77
2023-05-06T15:02:40.844Z,61.79
2023-05-06T15:05:09.451Z,62.05
2023-05-06T15:07:36.502Z,58.75
2023-05-06T15:10:04.078Z,60.31
2023-05-06T15:12:30.481Z,62.24
2023-05-06T15:14:56.978Z,61.06
2023-05-06T15:17:23.410Z,62.91
2023-05-06T15:19:49.882Z,61.26
2023-05-06T15:22:16.262Z,63.98
2023-05-06T15:24:42.894Z,63.52
2023-05-06T15:27:09.297Z,63.61
2023-05-06T15:29:38.015Z,63.06
2023-05-06T15:32:04.621Z,64.26
2023-05-06T15:34:31.034Z,65.28
2023-05-06T15:37:00.750Z,64.02
2023-05-06T15:39:27.646Z,63.87
2023-05-06T15:41:54.049Z,64.29
2023-05-06T15:44:21.075Z,63.59
2023-05-06T15:46:47.701Z,65.50
2023-05-06T15:49:45.569Z,67.62
2023-05-06T15:52:01.388Z,65.95
2023-05-06T15:54:28.723Z,66.85
2023-05-06T15:56:56.359Z,66.15
2023-05-06T15:59:23.024Z,66.03
2023-05-06T16:04:18.909Z,64.59
2023-05-06T16:06:45.492Z,64.64
2023-05-06T16:09:11.942Z,67.13
2023-05-06T16:11:38.321Z,66.14
2023-05-06T16:14:04.861Z,65.89
2023-05-06T16:16:31.331Z,66.09
2023-05-06T16:18:57.773Z,64.41
2023-05-06T16:21:24.150Z,65.51
2023-05-06T16:23:50.877Z,66.88
2023-05-06T16:26:17.566Z,68.58
2023-05-06T16:28:43.998Z,68.01
2023-05-06T16:31:10.522Z,69.66
2023-05-06T16:33:37.193Z,67.32
2023-05-06T16:36:03.877Z,67.09
2023-05-06T16:38:30.328Z,67.12
2023-05-06T16:40:58.154Z,66.49
2023-05-06T16:43:24.600Z,67.73
2023-05-06T16:45:51.007Z,67.00
2023-05-06T16:48:17.685Z,68.94
2023-05-06T16:50:44.270Z,69.33
2023-05-06T16:53:10.856Z,70.03
2023-05-06T16:55:37.401Z,67.24
2023-05-06T16:58:04.157Z,68.64
2023-05-06T17:00:31.285Z,68.54
2023-05-06T17:02:57.824Z,68.98
2023-05-06T17:05:24.515Z,69.85
2023-05-06T17:07:51.150Z,70.38
2023-05-06T17:10:17.606Z,71.55
2023-05-06T17:12:43.976Z,70.90
2023-05-06T17:15:11.392Z,72.24
2023-05-06T17:17:37.883Z,69.68
2023-05-06T17:20:05.218Z,71.78
2023-05-06T17:22:31.667Z,70.80
2023-05-06T17:24:58.029Z,68.93
2023-05-06T17:27:24.401Z,69.84
2023-05-06T17:29:51.509Z,71.71
2023-05-06T17:32:18.148Z,71.88
2023-05-06T17:34:45.604Z,72.29
2023-05-06T17:37:11.966Z,73.00
2023-05-06T17:39:38.418Z,72.86
2023-05-06T17:42:04.889Z,72.53
2023-05-06T17:44:31.544Z,73.42
2023-05-06T17:46:58.183Z,73.50
2023-05-06T17:49:24.657Z,73.53
2023-05-06T17:51:51.203Z,73.97
2023-05-06T17:54:17.932Z,75.61
2023-05-06T17:56:50.193Z,75.38
2023-05-06T17:59:18.817Z,76.97
2023-05-06T18:01:45.621Z,77.30
2023-05-06T18:04:12.609Z,78.58
2023-05-06T18:06:41.420Z,79.25
2023-05-06T18:09:08.466Z,80.70
2023-05-06T18:11:35.170Z,81.51
2023-05-06T18:14:01.597Z,82.72
2023-05-06T18:16:28.039Z,83.25
2023-05-06T18:18:54.431Z,84.06
2023-05-06T18:21:21.156Z,84.83
2023-05-06T18:23:48.523Z,85.99
2023-05-06T18:26:27.987Z,86.14
2023-05-06T18:29:06.800Z,87.38
2023-05-06T18:31:33.221Z,87.45
2023-05-06T18:33:59.649Z,87.98
2023-05-06T18:36:26.932Z,88.58
2023-05-06T18:38:53.360Z,88.95
2023-05-06T18:41:19.741Z,88.72
2023-05-06T18:43:46.095Z,88.98
2023-05-06T18:46:12.514Z,88.80
2023-05-06T18:48:39.009Z,89.34
2023-05-06T18:51:16.208Z,89.83
2023-05-06T18:53:43.094Z,90.03
2023-05-06T18:56:10.522Z,90.27
2023-05-06T18:58:38.566Z,90.53
2023-05-06T19:01:06.993Z,90.98
2023-05-06T19:03:37.394Z,91.27
2023-05-06T19:06:07.594Z,91.04
2023-05-06T19:08:34.059Z,91.20
2023-05-06T19:11:01.600Z,91.51
2023-05-06T19:13:28.183Z,91.42
2023-05-06T19:15:55.014Z,91.43
2023-05-06T19:18:21.386Z,91.41
2023-05-06T19:20:47.786Z,90.95
2023-05-06T19:23:14.162Z,91.14
2023-05-06T19:25:40.545Z,90.74
2023-05-06T19:28:07.049Z,90.75
2023-05-06T19:30:34.962Z,90.99
2023-05-06T19:33:02.059Z,91.01
2023-05-06T19:35:28.535Z,91.20
2023-05-06T19:37:54.930Z,91.75
2023-05-06T19:40:22.002Z,91.61
2023-05-06T19:42:48.393Z,91.97
2023-05-06T19:45:16.706Z,92.00
2023-05-06T19:47:45.305Z,92.00
2023-05-06T19:50:11.951Z,92.04
2023-05-06T19:52:38.676Z,92.57
2023-05-06T19:55:05.709Z,93.09
2023-05-06T19:57:33.577Z,92.93
2023-05-06T19:59:59.946Z,92.78
2023-05-06T20:02:26.412Z,92.67
2023-05-06T20:04:52.854Z,93.15
2023-05-06T20:07:21.000Z,93.75
2023-05-06T20:09:47.530Z,94.14
2023-05-06T20:12:13.990Z,94.06
2023-05-06T20:14:40.358Z,93.89
2023-05-06T20:17:06.716Z,94.52
2023-05-06T20:19:33.130Z,94.27
2023-05-06T20:22:00.286Z,94.74
2023-05-06T20:24:29.334Z,94.68
2023-05-06T20:26:56.156Z,94.86
2023-05-06T20:29:22.531Z,94.79
2023-05-06T20:31:49.002Z,94.41
2023-05-06T20:34:15.524Z,94.12
2023-05-06T20:36:42.822Z,94.32
2023-05-06T20:39:12.177Z,94.19
2023-05-06T20:41:38.691Z,94.42
2023-05-06T20:44:05.042Z,94.42
2023-05-06T20:46:32.854Z,94.36
2023-05-06T20:48:59.327Z,94.41
2023-05-06T20:51:27.691Z,94.76
2023-05-06T20:53:58.925Z,94.88
2023-05-06T20:56:27.194Z,94.25
2023-05-06T20:58:54.873Z,94.20
2023-05-06T21:01:23.788Z,94.34
2023-05-06T21:03:50.385Z,94.35
2023-05-06T21:06:17.958Z,94.10
2023-05-06T21:08:46.173Z,94.43
2023-05-06T21:11:13.196Z,94.40
2023-05-06T21:13:40.227Z,94.16
2023-05-06T21:16:06.604Z,94.22
2023-05-06T21:18:33.117Z,94.40
2023-05-06T21:20:59.765Z,95.07
2023-05-06T21:23:26.445Z,95.67
2023-05-06T21:25:52.822Z,96.01
2023-05-06T21:28:19.183Z,96.24
2023-05-06T21:30:45.634Z,96.08
2023-05-06T21:33:12.090Z,96.15
2023-05-06T21:35:38.489Z,96.09
2023-05-06T21:38:04.902Z,95.49
2023-05-06T21:40:31.255Z,95.44
2023-05-06T21:42:57.672Z,95.22
2023-05-06T21:45:24.036Z,95.22
2023-05-06T21:47:50.535Z,95.21
2023-05-06T21:50:16.960Z,95.25
2023-05-06T21:52:43.388Z,95.05
2023-05-06T21:55:10.036Z,95.32
2023-05-06T21:57:36.602Z,94.87
2023-05-06T22:00:08.542Z,95.00
2023-05-06T22:02:35.033Z,95.14
2023-05-06T22:05:01.422Z,94.56
2023-05-06T22:07:27.804Z,94.98
2023-05-06T22:09:54.156Z,95.18
2023-05-06T22:12:20.495Z,95.10
2023-05-06T22:14:47.137Z,94.85
2023-05-06T22:17:13.504Z,95.11
2023-05-06T22:19:40.819Z,95.11
2023-05-06T22:22:07.621Z,95.25
2023-05-06T22:24:34.208Z,95.48
2023-05-06T22:27:00.707Z,95.00
2023-05-06T22:29:27.143Z,94.81
2023-05-06T22:31:53.496Z,95.11
2023-05-06T22:34:20.387Z,95.04
2023-05-06T22:36:46.752Z,94.75
2023-05-06T22:39:13.186Z,94.71
2023-05-06T22:41:39.525Z,94.96
2023-05-06T22:44:06.269Z,94.82
2023-05-06T22:46:32.622Z,95.33
2023-05-06T22:49:00.077Z,95.04
2023-05-06T22:51:26.584Z,95.10
2023-05-06T22:53:53.019Z,95.06
2023-05-06T22:56:19.936Z,95.15
2023-05-06T22:58:46.357Z,94.89
2023-05-06T23:01:12.795Z,95.35
2023-05-06T23:03:39.237Z,95.08
2023-05-06T23:06:06.093Z,94.86
2023-05-06T23:08:32.610Z,94.93
2023-05-06T23:10:59.027Z,95.13
2023-05-06T23:13:26.383Z,95.32
2023-05-06T23:15:52.941Z,95.29
2023-05-06T23:18:20.608Z,95.42
2023-05-06T23:20:47.020Z,95.02
2023-05-06T23:23:13.394Z,94.87
2023-05-06T23:25:39.758Z,94.99
2023-05-06T23:28:06.114Z,95.16
2023-05-06T23:30:32.533Z,95.22
2023-05-06T23:32:59.021Z,95.01
2023-05-06T23:35:25.881Z,94.98
2023-05-06T23:37:52.359Z,94.98
2023-05-06T23:40:18.751Z,94.58
2023-05-06T23:42:45.102Z,94.75
2023-05-06T23:45:11.861Z,94.67
2023-05-06T23:47:38.576Z,95.01
2023-05-06T23:50:05.348Z,95.39
2023-05-06T23:52:31.910Z,95.37
2023-05-06T23:54:58.254Z,95.53
2023-05-06T23:57:24.621Z,95.59
2023-05-06T23:59:51.087Z,95.10
